sensor_id;sensor_type;location;lat;lon;timestamp;P1;durP1;ratioP1;P2;durP2;ratioP2
53549;SDS011;67273;52.914;-0.982;2023-05-07T00:00:40;0.70;;;0.70;;
53549;SDS011;67273;52.914;-0.982;2023-05-07T00:03:07;1.42;;;0.90;;
53549;SDS011;67273;52.914;-0.982;2023-05-07T00:05:34;1.45;;;1.00;;
53549;SDS011;67273;52.914;-0.982;2023-05-07T00:08:01;1.45;;;1.00;;
53549;SDS011;67273;52.914;-0.982;2023-05-07T00:10:26;2.00;;;1.05;;
53549;SDS011;67273;52.914;-0.982;2023-05-07T00:12:52;1.48;;;1.08;;
53549;SDS011;67273;52.914;-0.982;2023-05-07T00:15:19;2.25;;;1.30;;
53549;SDS011;67273;52.914;-0.982;2023-05-07T00:17:45;2.67;;;1.52;;
53549;SDS011;67273;52.914;-0.982;2023-05-07T00:20:12;2.42;;;1.55;;
53549;SDS011;67273;52.914;-0.982;2023-05-07T00:22:39;2.60;;;1.52;;
53549;SDS011;67273;52.914;-0.982;2023-05-07T00:25:05;2.97;;;1.60;;
53549;SDS011;67273;52.914;-0.982;2023-05-07T00:27:31;2.60;;;1.85;;
53549;SDS011;67273;52.914;-0.982;2023-05-07T00:29:57;2.75;;;1.70;;
53549;SDS011;67273;52.914;-0.982;2023-05-07T00:32:23;4.32;;;2.13;;
53549;SDS011;67273;52.914;-0.982;2023-05-07T00:34:49;3.95;;;2.22;;
53549;SDS011;67273;52.914;-0.982;2023-05-07T00:37:16;3.92;;;2.22;;
53549;SDS011;67273;52.914;-0.982;2023-05-07T00:39:43;4.65;;;2.42;;
53549;SDS011;67273;52.914;-0.982;2023-05-07T00:42:09;4.60;;;2.65;;
53549;SDS011;67273;52.914;-0.982;2023-05-07T00:44:35;4.22;;;2.30;;
53549;SDS011;67273;52.914;-0.982;2023-05-07T00:47:01;4.57;;;2.30;;
53549;SDS011;67273;52.914;-0.982;2023-05-07T00:49:30;4.57;;;2.55;;
53549;SDS011;67273;52.914;-0.982;2023-05-07T00:52:02;3.53;;;2.35;;
53549;SDS011;67273;52.914;-0.982;2023-05-07T00:54:29;4.50;;;2.70;;
53549;SDS011;67273;52.914;-0.982;2023-05-07T00:56:56;3.63;;;2.35;;
53549;SDS011;67273;52.914;-0.982;2023-05-07T00:59:22;4.25;;;2.40;;
53549;SDS011;67273;52.914;-0.982;2023-05-07T01:01:48;4.95;;;2.78;;
53549;SDS011;67273;52.914;-0.982;2023-05-07T01:04:14;3.95;;;2.58;;
53549;SDS011;67273;52.914;-0.982;2023-05-07T01:06:40;4.53;;;2.67;;
53549;SDS011;67273;52.914;-0.982;2023-05-07T01:09:06;5.40;;;2.72;;
53549;SDS011;67273;52.914;-0.982;2023-05-07T01:11:34;4.43;;;2.67;;
53549;SDS011;67273;52.914;-0.982;2023-05-07T01:14:01;4.95;;;2.75;;
53549;SDS011;67273;52.914;-0.982;2023-05-07T01:16:28;4.40;;;2.88;;
53549;SDS011;67273;52.914;-0.982;2023-05-07T01:18:53;4.75;;;2.72;;
53549;SDS011;67273;52.914;-0.982;2023-05-07T01:21:19;4.93;;;2.83;;
53549;SDS011;67273;52.914;-0.982;2023-05-07T01:23:52;5.05;;;3.13;;
53549;SDS011;67273;52.914;-0.982;2023-05-07T01:26:19;5.53;;;2.80;;
53549;SDS011;67273;52.914;-0.982;2023-05-07T01:28:45;5.82;;;3.65;;
53549;SDS011;67273;52.914;-0.982;2023-05-07T01:31:11;6.35;;;3.03;;
53549;SDS011;67273;52.914;-0.982;2023-05-07T01:33:38;6.10;;;3.05;;
53549;SDS011;67273;52.914;-0.982;2023-05-07T01:36:07;4.85;;;3.08;;
53549;SDS011;67273;52.914;-0.982;2023-05-07T01:38:34;6.03;;;3.13;;
53549;SDS011;67273;52.914;-0.982;2023-05-07T01:41:02;4.35;;;2.80;;
53549;SDS011;67273;52.914;-0.982;2023-05-07T01:43:29;5.75;;;3.17;;
53549;SDS011;67273;52.914;-0.982;2023-05-07T01:45:55;5.03;;;3.22;;
53549;SDS011;67273;52.914;-0.982;2023-05-07T01:48:22;5.38;;;3.55;;
53549;SDS011;67273;52.914;-0.982;2023-05-07T01:50:49;5.55;;;3.53;;
53549;SDS011;67273;52.914;-0.982;2023-05-07T01:53:16;5.60;;;3.22;;
53549;SDS011;67273;52.914;-0.982;2023-05-07T01:55:42;5.85;;;3.67;;
53549;SDS011;67273;52.914;-0.982;2023-05-07T01:58:10;6.22;;;3.65;;
53549;SDS011;67273;52.914;-0.982;2023-05-07T02:00:36;5.05;;;3.33;;
53549;SDS011;67273;52.914;-0.982;2023-05-07T02:03:01;6.03;;;3.78;;
53549;SDS011;67273;52.914;-0.982;2023-05-07T02:05:39;6.45;;;3.90;;
53549;SDS011;67273;52.914;-0.982;2023-05-07T02:08:19;6.43;;;4.00;;
53549;SDS011;67273;52.914;-0.982;2023-05-07T02:10:45;5.78;;;3.58;;
53549;SDS011;67273;52.914;-0.982;2023-05-07T02:13:13;5.40;;;3.50;;
53549;SDS011;67273;52.914;-0.982;2023-05-07T02:15:39;5.32;;;3.30;;
53549;SDS011;67273;52.914;-0.982;2023-05-07T02:18:05;6.82;;;4.40;;
53549;SDS011;67273;52.914;-0.982;2023-05-07T02:20:37;6.05;;;3.97;;
53549;SDS011;67273;52.914;-0.982;2023-05-07T02:23:02;5.45;;;3.75;;
53549;SDS011;67273;52.914;-0.982;2023-05-07T02:25:29;6.47;;;3.80;;
53549;SDS011;67273;52.914;-0.982;2023-05-07T02:27:55;5.43;;;3.63;;
53549;SDS011;67273;52.914;-0.982;2023-05-07T02:30:29;5.75;;;3.83;;
53549;SDS011;67273;52.914;-0.982;2023-05-07T02:32:57;6.35;;;3.88;;
53549;SDS011;67273;52.914;-0.982;2023-05-07T02:35:23;6.65;;;4.18;;
53549;SDS011;67273;52.914;-0.982;2023-05-07T02:37:49;7.30;;;3.80;;
53549;SDS011;67273;52.914;-0.982;2023-05-07T02:40:15;6.70;;;3.70;;
53549;SDS011;67273;52.914;-0.982;2023-05-07T02:42:41;6.55;;;4.07;;
53549;SDS011;67273;52.914;-0.982;2023-05-07T02:45:07;6.50;;;4.30;;
53549;SDS011;67273;52.914;-0.982;2023-05-07T02:47:35;6.22;;;4.00;;
53549;SDS011;67273;52.914;-0.982;2023-05-07T02:50:02;6.03;;;3.70;;
53549;SDS011;67273;52.914;-0.982;2023-05-07T02:52:29;5.68;;;3.60;;
53549;SDS011;67273;52.914;-0.982;2023-05-07T02:54:55;5.80;;;3.53;;
53549;SDS011;67273;52.914;-0.982;2023-05-07T02:57:20;7.57;;;3.80;;
53549;SDS011;67273;52.914;-0.982;2023-05-07T02:59:46;6.47;;;4.05;;
53549;SDS011;67273;52.914;-0.982;2023-05-07T03:02:13;5.82;;;3.80;;
53549;SDS011;67273;52.914;-0.982;2023-05-07T03:04:42;5.72;;;3.67;;
53549;SDS011;67273;52.914;-0.982;2023-05-07T03:07:09;5.25;;;3.67;;
53549;SDS011;67273;52.914;-0.982;2023-05-07T03:09:35;6.00;;;4.10;;
53549;SDS011;67273;52.914;-0.982;2023-05-07T03:12:01;6.65;;;3.97;;
53549;SDS011;67273;52.914;-0.982;2023-05-07T03:14:27;6.22;;;3.97;;
53549;SDS011;67273;52.914;-0.982;2023-05-07T03:16:53;5.82;;;3.65;;
53549;SDS011;67273;52.914;-0.982;2023-05-07T03:19:18;6.35;;;3.70;;
53549;SDS011;67273;52.914;-0.982;2023-05-07T03:21:46;6.20;;;4.25;;
53549;SDS011;67273;52.914;-0.982;2023-05-07T03:24:11;6.28;;;3.95;;
53549;SDS011;67273;52.914;-0.982;2023-05-07T03:26:37;6.35;;;3.63;;
53549;SDS011;67273;52.914;-0.982;2023-05-07T03:29:03;6.18;;;4.00;;
53549;SDS011;67273;52.914;-0.982;2023-05-07T03:31:29;5.95;;;3.95;;
53549;SDS011;67273;52.914;-0.982;2023-05-07T03:33:55;6.32;;;3.80;;
53549;SDS011;67273;52.914;-0.982;2023-05-07T03:36:23;6.03;;;4.00;;
53549;SDS011;67273;52.914;-0.982;2023-05-07T03:38:51;6.35;;;3.60;;
53549;SDS011;67273;52.914;-0.982;2023-05-07T03:41:19;6.45;;;3.90;;
53549;SDS011;67273;52.914;-0.982;2023-05-07T03:43:46;5.80;;;3.80;;
53549;SDS011;67273;52.914;-0.982;2023-05-07T03:46:12;4.95;;;3.60;;
53549;SDS011;67273;52.914;-0.982;2023-05-07T03:48:38;5.85;;;3.85;;
53549;SDS011;67273;52.914;-0.982;2023-05-07T03:51:05;5.97;;;3.55;;
53549;SDS011;67273;52.914;-0.982;2023-05-07T03:53:32;5.40;;;3.80;;
53549;SDS011;67273;52.914;-0.982;2023-05-07T03:56:00;5.70;;;3.55;;
53549;SDS011;67273;52.914;-0.982;2023-05-07T03:58:27;5.72;;;3.45;;
53549;SDS011;67273;52.914;-0.982;2023-05-07T04:00:56;5.53;;;3.42;;
53549;SDS011;67273;52.914;-0.982;2023-05-07T04:03:26;5.70;;;3.30;;
53549;SDS011;67273;52.914;-0.982;2023-05-07T04:05:52;5.57;;;3.45;;
53549;SDS011;67273;52.914;-0.982;2023-05-07T04:08:18;5.65;;;3.63;;
53549;SDS011;67273;52.914;-0.982;2023-05-07T04:10:47;5.07;;;3.42;;
53549;SDS011;67273;52.914;-0.982;2023-05-07T04:13:15;6.63;;;3.75;;
53549;SDS011;67273;52.914;-0.982;2023-05-07T04:15:41;4.90;;;3.20;;
53549;SDS011;67273;52.914;-0.982;2023-05-07T04:18:10;5.00;;;3.30;;
53549;SDS011;67273;52.914;-0.982;2023-05-07T04:20:37;4.93;;;3.15;;
53549;SDS011;67273;52.914;-0.982;2023-05-07T04:23:04;5.68;;;3.15;;
53549;SDS011;67273;52.914;-0.982;2023-05-07T04:25:31;4.90;;;3.30;;
53549;SDS011;67273;52.914;-0.982;2023-05-07T04:28:06;4.40;;;3.03;;
53549;SDS011;67273;52.914;-0.982;2023-05-07T04:30:34;5.18;;;3.10;;
53549;SDS011;67273;52.914;-0.982;2023-05-07T04:33:02;4.60;;;3.13;;
53549;SDS011;67273;52.914;-0.982;2023-05-07T04:35:29;5.30;;;3.20;;
53549;SDS011;67273;52.914;-0.982;2023-05-07T04:37:55;4.78;;;3.03;;
53549;SDS011;67273;52.914;-0.982;2023-05-07T04:40:21;4.78;;;3.42;;
53549;SDS011;67273;52.914;-0.982;2023-05-07T04:42:47;5.47;;;3.70;;
53549;SDS011;67273;52.914;-0.982;2023-05-07T04:45:13;4.85;;;3.00;;
53549;SDS011;67273;52.914;-0.982;2023-05-07T04:47:44;3.85;;;2.63;;
53549;SDS011;67273;52.914;-0.982;2023-05-07T04:50:10;5.13;;;3.03;;
53549;SDS011;67273;52.914;-0.982;2023-05-07T04:52:38;4.97;;;3.05;;
53549;SDS011;67273;52.914;-0.982;2023-05-07T04:55:05;4.78;;;3.13;;
53549;SDS011;67273;52.914;-0.982;2023-05-07T04:57:35;4.22;;;2.90;;
53549;SDS011;67273;52.914;-0.982;2023-05-07T05:00:01;4.40;;;2.83;;
53549;SDS011;67273;52.914;-0.982;2023-05-07T05:02:33;4.78;;;3.00;;
53549;SDS011;67273;52.914;-0.982;2023-05-07T05:05:00;4.55;;;2.80;;
53549;SDS011;67273;52.914;-0.982;2023-05-07T05:07:27;4.50;;;2.95;;
53549;SDS011;67273;52.914;-0.982;2023-05-07T05:09:53;4.25;;;2.83;;
53549;SDS011;67273;52.914;-0.982;2023-05-07T05:12:19;4.45;;;2.60;;
53549;SDS011;67273;52.914;-0.982;2023-05-07T05:14:45;4.65;;;3.10;;
53549;SDS011;67273;52.914;-0.982;2023-05-07T05:17:11;3.22;;;2.50;;
53549;SDS011;67273;52.914;-0.982;2023-05-07T05:19:36;4.45;;;2.88;;
53549;SDS011;67273;52.914;-0.982;2023-05-07T05:22:04;4.32;;;2.78;;
53549;SDS011;67273;52.914;-0.982;2023-05-07T05:24:30;4.72;;;2.72;;
53549;SDS011;67273;52.914;-0.982;2023-05-07T05:26:55;4.15;;;2.72;;
53549;SDS011;67273;52.914;-0.982;2023-05-07T05:29:22;3.35;;;2.38;;
53549;SDS011;67273;52.914;-0.982;2023-05-07T05:31:48;4.30;;;2.85;;
53549;SDS011;67273;52.914;-0.982;2023-05-07T05:34:14;3.85;;;2.60;;
53549;SDS011;67273;52.914;-0.982;2023-05-07T05:36:41;3.38;;;2.30;;
53549;SDS011;67273;52.914;-0.982;2023-05-07T05:39:09;3.08;;;2.38;;
53549;SDS011;67273;52.914;-0.982;2023-05-07T05:41:35;3.42;;;2.40;;
53549;SDS011;67273;52.914;-0.982;2023-05-07T05:44:02;3.13;;;2.08;;
53549;SDS011;67273;52.914;-0.982;2023-05-07T05:46:28;3.70;;;2.40;;
53549;SDS011;67273;52.914;-0.982;2023-05-07T05:48:55;3.95;;;2.33;;
53549;SDS011;67273;52.914;-0.982;2023-05-07T05:51:23;3.80;;;2.50;;
53549;SDS011;67273;52.914;-0.982;2023-05-07T05:53:52;3.45;;;2.25;;
53549;SDS011;67273;52.914;-0.982;2023-05-07T05:56:22;3.15;;;2.30;;
53549;SDS011;67273;52.914;-0.982;2023-05-07T05:58:48;3.15;;;2.30;;
53549;SDS011;67273;52.914;-0.982;2023-05-07T06:01:14;2.80;;;1.98;;
53549;SDS011;67273;52.914;-0.982;2023-05-07T06:03:40;3.63;;;2.40;;
53549;SDS011;67273;52.914;-0.982;2023-05-07T06:06:11;2.40;;;1.90;;
53549;SDS011;67273;52.914;-0.982;2023-05-07T06:08:37;3.28;;;2.13;;
53549;SDS011;67273;52.914;-0.982;2023-05-07T06:11:03;3.50;;;2.53;;
53549;SDS011;67273;52.914;-0.982;2023-05-07T06:13:34;3.10;;;2.17;;
53549;SDS011;67273;52.914;-0.982;2023-05-07T06:16:00;2.85;;;1.90;;
53549;SDS011;67273;52.914;-0.982;2023-05-07T06:18:25;2.63;;;1.95;;
53549;SDS011;67273;52.914;-0.982;2023-05-07T06:20:51;2.63;;;2.03;;
53549;SDS011;67273;52.914;-0.982;2023-05-07T06:23:23;2.80;;;2.17;;
53549;SDS011;67273;52.914;-0.982;2023-05-07T06:25:49;3.28;;;2.05;;
53549;SDS011;67273;52.914;-0.982;2023-05-07T06:28:17;3.13;;;2.05;;
53549;SDS011;67273;52.914;-0.982;2023-05-07T06:30:44;2.72;;;2.17;;
53549;SDS011;67273;52.914;-0.982;2023-05-07T06:33:10;2.70;;;2.00;;
53549;SDS011;67273;52.914;-0.982;2023-05-07T06:35:36;2.30;;;1.77;;
53549;SDS011;67273;52.914;-0.982;2023-05-07T06:38:01;2.83;;;2.10;;
53549;SDS011;67273;52.914;-0.982;2023-05-07T06:40:29;3.28;;;2.15;;
53549;SDS011;67273;52.914;-0.982;2023-05-07T06:42:58;2.20;;;1.80;;
53549;SDS011;67273;52.914;-0.982;2023-05-07T06:45:48;2.42;;;2.10;;
53549;SDS011;67273;52.914;-0.982;2023-05-07T06:48:14;3.03;;;2.10;;
53549;SDS011;67273;52.914;-0.982;2023-05-07T06:50:50;2.92;;;2.05;;
53549;SDS011;67273;52.914;-0.982;2023-05-07T06:53:17;2.65;;;2.00;;
53549;SDS011;67273;52.914;-0.982;2023-05-07T06:55:43;2.72;;;1.90;;
53549;SDS011;67273;52.914;-0.982;2023-05-07T06:58:10;2.58;;;1.63;;
53549;SDS011;67273;52.914;-0.982;2023-05-07T07:00:37;1.83;;;1.40;;
53549;SDS011;67273;52.914;-0.982;2023-05-07T07:03:04;2.70;;;2.00;;
53549;SDS011;67273;52.914;-0.982;2023-05-07T07:05:30;2.85;;;1.95;;
53549;SDS011;67273;52.914;-0.982;2023-05-07T07:07:57;2.42;;;1.80;;
53549;SDS011;67273;52.914;-0.982;2023-05-07T07:10:23;2.40;;;1.88;;
53549;SDS011;67273;52.914;-0.982;2023-05-07T07:12:50;1.83;;;1.58;;
53549;SDS011;67273;52.914;-0.982;2023-05-07T07:15:19;1.58;;;1.45;;
53549;SDS011;67273;52.914;-0.982;2023-05-07T07:17:47;2.15;;;1.63;;
53549;SDS011;67273;52.914;-0.982;2023-05-07T07:20:14;2.25;;;1.85;;
53549;SDS011;67273;52.914;-0.982;2023-05-07T07:22:43;1.95;;;1.77;;
53549;SDS011;67273;52.914;-0.982;2023-05-07T07:25:09;1.92;;;1.70;;
53549;SDS011;67273;52.914;-0.982;2023-05-07T07:27:36;2.50;;;1.73;;
53549;SDS011;67273;52.914;-0.982;2023-05-07T07:30:02;2.38;;;1.73;;
53549;SDS011;67273;52.914;-0.982;2023-05-07T07:32:31;2.47;;;1.80;;
53549;SDS011;67273;52.914;-0.982;2023-05-07T07:34:59;2.15;;;1.60;;
53549;SDS011;67273;52.914;-0.982;2023-05-07T07:37:27;3.05;;;2.00;;
53549;SDS011;67273;52.914;-0.982;2023-05-07T07:39:53;2.42;;;1.63;;
53549;SDS011;67273;52.914;-0.982;2023-05-07T07:42:20;1.90;;;1.60;;
53549;SDS011;67273;52.914;-0.982;2023-05-07T07:44:47;1.98;;;1.65;;
53549;SDS011;67273;52.914;-0.982;2023-05-07T07:47:15;2.28;;;1.67;;
53549;SDS011;67273;52.914;-0.982;2023-05-07T07:49:41;2.58;;;1.70;;
53549;SDS011;67273;52.914;-0.982;2023-05-07T07:52:08;1.63;;;1.50;;
53549;SDS011;67273;52.914;-0.982;2023-05-07T07:54:37;2.65;;;1.90;;
53549;SDS011;67273;52.914;-0.982;2023-05-07T07:57:05;1.63;;;1.50;;
53549;SDS011;67273;52.914;-0.982;2023-05-07T07:59:32;2.05;;;1.60;;
53549;SDS011;67273;52.914;-0.982;2023-05-07T08:01:58;2.38;;;1.80;;
53549;SDS011;67273;52.914;-0.982;2023-05-07T08:04:26;1.85;;;1.63;;
53549;SDS011;67273;52.914;-0.982;2023-05-07T08:06:54;2.03;;;1.73;;
53549;SDS011;67273;52.914;-0.982;2023-05-07T08:09:22;2.30;;;1.60;;
53549;SDS011;67273;52.914;-0.982;2023-05-07T08:11:50;1.90;;;1.80;;
53549;SDS011;67273;52.914;-0.982;2023-05-07T08:14:16;2.00;;;1.80;;
53549;SDS011;67273;52.914;-0.982;2023-05-07T08:16:45;2.05;;;1.70;;
53549;SDS011;67273;52.914;-0.982;2023-05-07T08:19:11;2.25;;;1.85;;
53549;SDS011;67273;52.914;-0.982;2023-05-07T08:21:38;1.83;;;1.65;;
53549;SDS011;67273;52.914;-0.982;2023-05-07T08:24:05;1.77;;;1.58;;
53549;SDS011;67273;52.914;-0.982;2023-05-07T08:26:30;1.60;;;1.50;;
53549;SDS011;67273;52.914;-0.982;2023-05-07T08:28:58;1.63;;;1.52;;
53549;SDS011;67273;52.914;-0.982;2023-05-07T08:31:24;2.08;;;1.88;;
53549;SDS011;67273;52.914;-0.982;2023-05-07T08:33:50;1.70;;;1.58;;
53549;SDS011;67273;52.914;-0.982;2023-05-07T08:36:16;2.05;;;1.80;;
53549;SDS011;67273;52.914;-0.982;2023-05-07T08:38:44;1.60;;;1.50;;
53549;SDS011;67273;52.914;-0.982;2023-05-07T08:41:11;2.13;;;1.90;;
53549;SDS011;67273;52.914;-0.982;2023-05-07T08:43:40;2.28;;;1.85;;
53549;SDS011;67273;52.914;-0.982;2023-05-07T08:46:09;2.35;;;1.88;;
53549;SDS011;67273;52.914;-0.982;2023-05-07T08:48:41;2.17;;;1.70;;
53549;SDS011;67273;52.914;-0.982;2023-05-07T08:51:12;2.35;;;1.83;;
53549;SDS011;67273;52.914;-0.982;2023-05-07T08:53:39;2.10;;;1.90;;
53549;SDS011;67273;52.914;-0.982;2023-05-07T08:56:07;2.20;;;1.90;;
53549;SDS011;67273;52.914;-0.982;2023-05-07T08:58:34;1.98;;;1.77;;
53549;SDS011;67273;52.914;-0.982;2023-05-07T09:01:00;2.10;;;1.90;;
53549;SDS011;67273;52.914;-0.982;2023-05-07T09:03:33;2.30;;;1.88;;
53549;SDS011;67273;52.914;-0.982;2023-05-07T09:05:59;1.88;;;1.75;;
53549;SDS011;67273;52.914;-0.982;2023-05-07T09:08:27;2.30;;;1.80;;
53549;SDS011;67273;52.914;-0.982;2023-05-07T09:10:55;2.03;;;1.73;;
53549;SDS011;67273;52.914;-0.982;2023-05-07T09:13:22;1.75;;;1.65;;
53549;SDS011;67273;52.914;-0.982;2023-05-07T09:15:48;1.80;;;1.70;;
53549;SDS011;67273;52.914;-0.982;2023-05-07T09:18:15;1.85;;;1.70;;
53549;SDS011;67273;52.914;-0.982;2023-05-07T09:20:42;1.60;;;1.50;;
53549;SDS011;67273;52.914;-0.982;2023-05-07T09:23:08;2.05;;;1.58;;
53549;SDS011;67273;52.914;-0.982;2023-05-07T09:25:36;1.90;;;1.60;;
53549;SDS011;67273;52.914;-0.982;2023-05-07T09:30:36;1.90;;;1.80;;
53549;SDS011;67273;52.914;-0.982;2023-05-07T09:33:05;1.83;;;1.60;;
53549;SDS011;67273;52.914;-0.982;2023-05-07T09:35:33;2.22;;;1.90;;
53549;SDS011;67273;52.914;-0.982;2023-05-07T09:38:05;1.70;;;1.60;;
53549;SDS011;67273;52.914;-0.982;2023-05-07T09:40:34;2.25;;;1.67;;
53549;SDS011;67273;52.914;-0.982;2023-05-07T09:43:09;1.95;;;1.67;;
53549;SDS011;67273;52.914;-0.982;2023-05-07T09:45:36;1.65;;;1.55;;
53549;SDS011;67273;52.914;-0.982;2023-05-07T09:48:04;1.58;;;1.48;;
53549;SDS011;67273;52.914;-0.982;2023-05-07T09:50:32;2.10;;;1.75;;
53549;SDS011;67273;52.914;-0.982;2023-05-07T09:53:01;1.92;;;1.50;;
53549;SDS011;67273;52.914;-0.982;2023-05-07T09:55:31;2.40;;;1.80;;
53549;SDS011;67273;52.914;-0.982;2023-05-07T09:57:56;1.75;;;1.48;;
53549;SDS011;67273;52.914;-0.982;2023-05-07T10:00:25;1.77;;;1.63;;
53549;SDS011;67273;52.914;-0.982;2023-05-07T10:03:00;1.48;;;1.35;;
53549;SDS011;67273;52.914;-0.982;2023-05-07T10:05:40;1.50;;;1.40;;
53549;SDS011;67273;52.914;-0.982;2023-05-07T10:08:07;1.98;;;1.67;;
53549;SDS011;67273;52.914;-0.982;2023-05-07T10:10:38;1.65;;;1.50;;
53549;SDS011;67273;52.914;-0.982;2023-05-07T10:13:08;1.77;;;1.67;;
53549;SDS011;67273;52.914;-0.982;2023-05-07T10:15:37;1.70;;;1.60;;
53549;SDS011;67273;52.914;-0.982;2023-05-07T10:18:04;1.70;;;1.60;;
53549;SDS011;67273;52.914;-0.982;2023-05-07T10:20:32;1.40;;;1.30;;
53549;SDS011;67273;52.914;-0.982;2023-05-07T10:22:59;1.95;;;1.70;;
53549;SDS011;67273;52.914;-0.982;2023-05-07T10:25:35;1.48;;;1.38;;
53549;SDS011;67273;52.914;-0.982;2023-05-07T10:28:08;1.35;;;1.25;;
53549;SDS011;67273;52.914;-0.982;2023-05-07T10:30:44;1.75;;;1.60;;
53549;SDS011;67273;52.914;-0.982;2023-05-07T10:33:23;1.67;;;1.57;;
53549;SDS011;67273;52.914;-0.982;2023-05-07T10:35:54;1.80;;;1.70;;
53549;SDS011;67273;52.914;-0.982;2023-05-07T10:38:23;1.60;;;1.50;;
53549;SDS011;67273;52.914;-0.982;2023-05-07T10:40:50;1.65;;;1.52;;
53549;SDS011;67273;52.914;-0.982;2023-05-07T10:43:18;1.55;;;1.45;;
53549;SDS011;67273;52.914;-0.982;2023-05-07T10:49:18;1.90;;;1.50;;
53549;SDS011;67273;52.914;-0.982;2023-05-07T10:55:21;1.83;;;1.42;;
53549;SDS011;67273;52.914;-0.982;2023-05-07T11:01:13;1.60;;;1.50;;
53549;SDS011;67273;52.914;-0.982;2023-05-07T11:06:36;1.70;;;1.60;;
53549;SDS011;67273;52.914;-0.982;2023-05-07T11:09:07;1.50;;;1.40;;
53549;SDS011;67273;52.914;-0.982;2023-05-07T11:11:44;1.83;;;1.50;;
53549;SDS011;67273;52.914;-0.982;2023-05-07T11:14:17;1.83;;;1.30;;
53549;SDS011;67273;52.914;-0.982;2023-05-07T11:17:13;1.35;;;1.20;;
53549;SDS011;67273;52.914;-0.982;2023-05-07T11:19:47;1.42;;;1.30;;
53549;SDS011;67273;52.914;-0.982;2023-05-07T11:25:17;1.80;;;1.40;;
53549;SDS011;67273;52.914;-0.982;2023-05-07T11:27:45;1.58;;;1.42;;
53549;SDS011;67273;52.914;-0.982;2023-05-07T11:30:17;1.30;;;1.20;;
53549;SDS011;67273;52.914;-0.982;2023-05-07T11:32:47;1.42;;;1.33;;
53549;SDS011;67273;52.914;-0.982;2023-05-07T11:35:15;1.33;;;1.23;;
53549;SDS011;67273;52.914;-0.982;2023-05-07T11:37:42;1.42;;;1.33;;
53549;SDS011;67273;52.914;-0.982;2023-05-07T11:40:11;1.80;;;1.50;;
53549;SDS011;67273;52.914;-0.982;2023-05-07T11:42:39;1.48;;;1.38;;
53549;SDS011;67273;52.914;-0.982;2023-05-07T11:45:08;1.35;;;1.25;;
53549;SDS011;67273;52.914;-0.982;2023-05-07T11:47:35;1.30;;;1.20;;
53549;SDS011;67273;52.914;-0.982;2023-05-07T11:50:02;1.65;;;1.30;;
53549;SDS011;67273;52.914;-0.982;2023-05-07T11:52:30;1.48;;;1.38;;
53549;SDS011;67273;52.914;-0.982;2023-05-07T11:54:56;1.90;;;1.40;;
53549;SDS011;67273;52.914;-0.982;2023-05-07T11:57:23;1.40;;;1.30;;
53549;SDS011;67273;52.914;-0.982;2023-05-07T11:59:52;1.30;;;1.20;;
53549;SDS011;67273;52.914;-0.982;2023-05-07T12:02:18;1.40;;;1.30;;
53549;SDS011;67273;52.914;-0.982;2023-05-07T12:04:46;1.45;;;1.10;;
53549;SDS011;67273;52.914;-0.982;2023-05-07T12:07:11;1.40;;;1.23;;
53549;SDS011;67273;52.914;-0.982;2023-05-07T12:09:38;1.30;;;1.20;;
53549;SDS011;67273;52.914;-0.982;2023-05-07T12:12:05;1.63;;;1.10;;
53549;SDS011;67273;52.914;-0.982;2023-05-07T12:14:31;1.10;;;1.00;;
53549;SDS011;67273;52.914;-0.982;2023-05-07T12:16:57;1.83;;;1.27;;
53549;SDS011;67273;52.914;-0.982;2023-05-07T12:19:24;1.70;;;1.10;;
53549;SDS011;67273;52.914;-0.982;2023-05-07T12:21:51;1.92;;;1.20;;
53549;SDS011;67273;52.914;-0.982;2023-05-07T12:24:17;1.20;;;1.10;;
53549;SDS011;67273;52.914;-0.982;2023-05-07T12:26:43;2.67;;;1.20;;
53549;SDS011;67273;52.914;-0.982;2023-05-07T12:29:09;1.42;;;1.30;;
53549;SDS011;67273;52.914;-0.982;2023-05-07T12:31:35;1.65;;;1.23;;
53549;SDS011;67273;52.914;-0.982;2023-05-07T12:34:01;1.30;;;1.20;;
53549;SDS011;67273;52.914;-0.982;2023-05-07T12:36:35;2.03;;;1.20;;
53549;SDS011;67273;52.914;-0.982;2023-05-07T12:39:03;3.97;;;1.25;;
53549;SDS011;67273;52.914;-0.982;2023-05-07T12:41:29;2.42;;;1.40;;
53549;SDS011;67273;52.914;-0.982;2023-05-07T12:43:56;2.08;;;1.20;;
53549;SDS011;67273;52.914;-0.982;2023-05-07T12:46:22;2.28;;;1.30;;
53549;SDS011;67273;52.914;-0.982;2023-05-07T12:48:48;3.05;;;1.40;;
53549;SDS011;67273;52.914;-0.982;2023-05-07T12:51:15;1.40;;;1.10;;
53549;SDS011;67273;52.914;-0.982;2023-05-07T12:53:41;3.13;;;1.40;;
53549;SDS011;67273;52.914;-0.982;2023-05-07T12:56:09;1.98;;;1.30;;
53549;SDS011;67273;52.914;-0.982;2023-05-07T12:58:35;1.42;;;1.30;;
53549;SDS011;67273;52.914;-0.982;2023-05-07T13:01:01;2.53;;;1.33;;
53549;SDS011;67273;52.914;-0.982;2023-05-07T13:03:31;1.27;;;1.00;;
53549;SDS011;67273;52.914;-0.982;2023-05-07T13:05:58;1.77;;;1.17;;
53549;SDS011;67273;52.914;-0.982;2023-05-07T13:08:26;2.67;;;1.40;;
53549;SDS011;67273;52.914;-0.982;2023-05-07T13:10:53;1.23;;;1.08;;
53549;SDS011;67273;52.914;-0.982;2023-05-07T13:13:20;1.52;;;1.10;;
53549;SDS011;67273;52.914;-0.982;2023-05-07T13:15:46;1.27;;;1.17;;
53549;SDS011;67273;52.914;-0.982;2023-05-07T13:18:12;2.47;;;1.30;;
53549;SDS011;67273;52.914;-0.982;2023-05-07T13:20:37;2.28;;;1.42;;
53549;SDS011;67273;52.914;-0.982;2023-05-07T13:23:03;7.45;;;1.80;;
53549;SDS011;67273;52.914;-0.982;2023-05-07T13:25:29;5.32;;;2.20;;
53549;SDS011;67273;52.914;-0.982;2023-05-07T13:27:56;7.60;;;2.05;;
53549;SDS011;67273;52.914;-0.982;2023-05-07T13:30:23;6.15;;;1.60;;
53549;SDS011;67273;52.914;-0.982;2023-05-07T13:32:49;6.03;;;2.00;;
53549;SDS011;67273;52.914;-0.982;2023-05-07T13:35:16;9.18;;;2.10;;
53549;SDS011;67273;52.914;-0.982;2023-05-07T13:37:41;6.30;;;1.90;;
53549;SDS011;67273;52.914;-0.982;2023-05-07T13:40:08;3.90;;;1.80;;
53549;SDS011;67273;52.914;-0.982;2023-05-07T13:42:34;4.22;;;1.83;;
53549;SDS011;67273;52.914;-0.982;2023-05-07T13:45:00;5.72;;;1.77;;
53549;SDS011;67273;52.914;-0.982;2023-05-07T13:47:27;5.35;;;1.90;;
53549;SDS011;67273;52.914;-0.982;2023-05-07T13:49:53;3.20;;;1.80;;
53549;SDS011;67273;52.914;-0.982;2023-05-07T13:52:19;4.35;;;1.70;;
53549;SDS011;67273;52.914;-0.982;2023-05-07T13:54:45;5.20;;;1.90;;
53549;SDS011;67273;52.914;-0.982;2023-05-07T13:57:11;4.25;;;1.83;;
53549;SDS011;67273;52.914;-0.982;2023-05-07T13:59:37;5.05;;;1.80;;
53549;SDS011;67273;52.914;-0.982;2023-05-07T14:02:03;3.45;;;1.67;;
53549;SDS011;67273;52.914;-0.982;2023-05-07T14:04:31;2.92;;;1.70;;
53549;SDS011;67273;52.914;-0.982;2023-05-07T14:06:57;3.67;;;1.80;;
53549;SDS011;67273;52.914;-0.982;2023-05-07T14:09:22;5.13;;;1.95;;
53549;SDS011;67273;52.914;-0.982;2023-05-07T14:11:48;4.03;;;1.50;;
53549;SDS011;67273;52.914;-0.982;2023-05-07T14:14:16;4.85;;;1.67;;
53549;SDS011;67273;52.914;-0.982;2023-05-07T14:16:42;4.40;;;1.85;;
53549;SDS011;67273;52.914;-0.982;2023-05-07T14:19:07;3.33;;;1.67;;
53549;SDS011;67273;52.914;-0.982;2023-05-07T14:21:35;2.58;;;1.63;;
53549;SDS011;67273;52.914;-0.982;2023-05-07T14:24:00;2.45;;;1.50;;
53549;SDS011;67273;52.914;-0.982;2023-05-07T14:26:26;4.00;;;1.60;;
53549;SDS011;67273;52.914;-0.982;2023-05-07T14:28:52;2.83;;;1.65;;
53549;SDS011;67273;52.914;-0.982;2023-05-07T14:31:20;2.42;;;1.63;;
53549;SDS011;67273;52.914;-0.982;2023-05-07T14:33:45;6.75;;;1.42;;
53549;SDS011;67273;52.914;-0.982;2023-05-07T14:36:12;2.60;;;1.45;;
53549;SDS011;67273;52.914;-0.982;2023-05-07T14:38:39;1.70;;;1.30;;
53549;SDS011;67273;52.914;-0.982;2023-05-07T14:41:04;2.92;;;1.70;;
53549;SDS011;67273;52.914;-0.982;2023-05-07T14:43:30;3.00;;;1.58;;
53549;SDS011;67273;52.914;-0.982;2023-05-07T14:45:56;4.72;;;1.67;;
53549;SDS011;67273;52.914;-0.982;2023-05-07T14:48:22;2.58;;;1.60;;
53549;SDS011;67273;52.914;-0.982;2023-05-07T14:50:48;2.75;;;1.55;;
53549;SDS011;67273;52.914;-0.982;2023-05-07T14:53:13;2.90;;;1.60;;